CheckWX is a tool to help pilots better visualize weather data.  It is not intended as a substitute for an official pre-flight weather briefing.

00:35:38 UTC

KBWI TAF
Baltimore / Washington International Thurgood Marshall Airport
Baltimore, Maryland, USA
KBWI 242343Z 2500/2606 20004KT P6SM BKN100 FM250900 VRB03KT 5SM -RA OVC015 FM251100 VRB03KT 2SM -RA BR SCT003 OVC008 FM251500 11004KT 1 1/2SM -RADZ BR OVC004 FM251800 06004KT 3SM -DZ BR OVC008 FM260300 VRB03KT 2SM -DZ BR OVC005

Feb-25@
00:00 UTC

Feb-25 @ 00:00 UTC

Feb-25@
09:00 UTC

Feb-25 @ 09:00 UTC

KBWI 242343Z 2500/2606 20004KT P6SM BKN100
Wind
  • 200° at 4 KTS
Cloud Levels
  • Broken at 10,000' AGL

Feb-25@
09:00 UTC

Feb-25 @ 09:00 UTC

Feb-25@
11:00 UTC

Feb-25 @ 11:00 UTC

FM250900 VRB03KT 5SM -RA OVC015

From

From Standard forecast or significant change

Wind
  • Variable at 3 KTS
Conditions
Light Rain
Cloud Levels
  • Overcast at 1,500' AGL

Feb-25@
11:00 UTC

Feb-25 @ 11:00 UTC

Feb-25@
15:00 UTC

Feb-25 @ 15:00 UTC

FM251100 VRB03KT 2SM -RA BR SCT003 OVC008

From

From Standard forecast or significant change

Wind
  • Variable at 3 KTS
Conditions
Light Rain, Mist
Cloud Levels
  • Scattered at 300' AGL
  • Overcast at 800' AGL

Feb-25@
15:00 UTC

Feb-25 @ 15:00 UTC

Feb-25@
18:00 UTC

Feb-25 @ 18:00 UTC

FM251500 11004KT 1 1/2SM -RADZ BR OVC004

From

From Standard forecast or significant change

Wind
  • 110° at 4 KTS
Conditions
Light Rain, Light Drizzle, Mist
Cloud Levels
  • Overcast at 400' AGL

Feb-25@
18:00 UTC

Feb-25 @ 18:00 UTC

Feb-26@
03:00 UTC

Feb-26 @ 03:00 UTC

FM251800 06004KT 3SM -DZ BR OVC008

From

From Standard forecast or significant change

Wind
  • 060° at 4 KTS
Conditions
Light Drizzle, Mist
Cloud Levels
  • Overcast at 800' AGL

Feb-26@
03:00 UTC

Feb-26 @ 03:00 UTC

Feb-26@
06:00 UTC

Feb-26 @ 06:00 UTC

FM260300 VRB03KT 2SM -DZ BR OVC005

From

From Standard forecast or significant change

Wind
  • Variable at 3 KTS
Conditions
Light Drizzle, Mist
Cloud Levels
  • Overcast at 500' AGL